sensor_id;sensor_type;location;lat;lon;timestamp;P1;durP1;ratioP1;P2;durP2;ratioP2
67528;SDS011;54366;51.980;5.856;2024-03-02T00:01:05;1.95;;;0.80;;
67528;SDS011;54366;51.980;5.856;2024-03-02T00:03:32;1.38;;;0.65;;
67528;SDS011;54366;51.980;5.856;2024-03-02T00:05:59;1.30;;;0.73;;
67528;SDS011;54366;51.980;5.856;2024-03-02T00:08:25;3.20;;;1.15;;
67528;SDS011;54366;51.980;5.856;2024-03-02T00:10:51;1.85;;;1.00;;
67528;SDS011;54366;51.980;5.856;2024-03-02T00:13:22;2.53;;;1.00;;
67528;SDS011;54366;51.980;5.856;2024-03-02T00:15:52;2.00;;;0.90;;
67528;SDS011;54366;51.980;5.856;2024-03-02T00:18:23;1.17;;;0.73;;
67528;SDS011;54366;51.980;5.856;2024-03-02T00:20:56;0.98;;;0.70;;
67528;SDS011;54366;51.980;5.856;2024-03-02T00:23:23;1.77;;;0.60;;
67528;SDS011;54366;51.980;5.856;2024-03-02T00:25:55;1.17;;;0.60;;
67528;SDS011;54366;51.980;5.856;2024-03-02T00:28:23;1.00;;;0.60;;
67528;SDS011;54366;51.980;5.856;2024-03-02T00:31:04;1.45;;;1.00;;
67528;SDS011;54366;51.980;5.856;2024-03-02T00:33:33;1.45;;;0.82;;
67528;SDS011;54366;51.980;5.856;2024-03-02T00:36:22;1.17;;;0.70;;
67528;SDS011;54366;51.980;5.856;2024-03-02T00:38:53;1.23;;;0.70;;
67528;SDS011;54366;51.980;5.856;2024-03-02T00:41:30;2.05;;;0.80;;
67528;SDS011;54366;51.980;5.856;2024-03-02T00:44:01;1.40;;;0.68;;
67528;SDS011;54366;51.980;5.856;2024-03-02T00:46:35;0.82;;;0.73;;
67528;SDS011;54366;51.980;5.856;2024-03-02T00:49:03;0.80;;;0.50;;
67528;SDS011;54366;51.980;5.856;2024-03-02T00:51:31;1.17;;;0.80;;
67528;SDS011;54366;51.980;5.856;2024-03-02T00:54:00;1.05;;;0.75;;
67528;SDS011;54366;51.980;5.856;2024-03-02T00:56:30;1.25;;;0.70;;
67528;SDS011;54366;51.980;5.856;2024-03-02T00:58:56;2.03;;;0.60;;
67528;SDS011;54366;51.980;5.856;2024-03-02T01:01:23;1.48;;;0.85;;
67528;SDS011;54366;51.980;5.856;2024-03-02T01:03:49;0.60;;;0.50;;
67528;SDS011;54366;51.980;5.856;2024-03-02T01:06:16;1.98;;;0.70;;
67528;SDS011;54366;51.980;5.856;2024-03-02T01:08:42;1.98;;;0.70;;
67528;SDS011;54366;51.980;5.856;2024-03-02T01:11:09;1.25;;;0.63;;
67528;SDS011;54366;51.980;5.856;2024-03-02T01:13:35;1.08;;;0.60;;
67528;SDS011;54366;51.980;5.856;2024-03-02T01:16:02;1.65;;;0.70;;
67528;SDS011;54366;51.980;5.856;2024-03-02T01:18:29;0.90;;;0.60;;
67528;SDS011;54366;51.980;5.856;2024-03-02T01:20:56;1.35;;;0.60;;
67528;SDS011;54366;51.980;5.856;2024-03-02T01:23:23;1.88;;;0.80;;
67528;SDS011;54366;51.980;5.856;2024-03-02T01:25:50;1.23;;;0.50;;
67528;SDS011;54366;51.980;5.856;2024-03-02T01:28:18;1.20;;;0.40;;
67528;SDS011;54366;51.980;5.856;2024-03-02T01:30:44;0.30;;;0.20;;
67528;SDS011;54366;51.980;5.856;2024-03-02T01:33:11;0.75;;;0.20;;
67528;SDS011;54366;51.980;5.856;2024-03-02T01:35:37;0.95;;;0.30;;
67528;SDS011;54366;51.980;5.856;2024-03-02T01:38:03;0.38;;;0.20;;
67528;SDS011;54366;51.980;5.856;2024-03-02T01:40:36;0.28;;;0.10;;
67528;SDS011;54366;51.980;5.856;2024-03-02T01:43:03;0.10;;;0.10;;
67528;SDS011;54366;51.980;5.856;2024-03-02T01:45:30;0.50;;;0.10;;
67528;SDS011;54366;51.980;5.856;2024-03-02T01:47:58;0.20;;;0.10;;
67528;SDS011;54366;51.980;5.856;2024-03-02T01:50:33;0.32;;;0.10;;
67528;SDS011;54366;51.980;5.856;2024-03-02T01:53:00;0.20;;;0.10;;
67528;SDS011;54366;51.980;5.856;2024-03-02T01:55:30;0.13;;;0.10;;
67528;SDS011;54366;51.980;5.856;2024-03-02T01:57:57;0.28;;;0.10;;
67528;SDS011;54366;51.980;5.856;2024-03-02T02:00:23;0.10;;;0.08;;
67528;SDS011;54366;51.980;5.856;2024-03-02T02:02:52;0.10;;;0.10;;
67528;SDS011;54366;51.980;5.856;2024-03-02T02:05:19;0.17;;;0.08;;
67528;SDS011;54366;51.980;5.856;2024-03-02T02:07:45;0.15;;;0.10;;
67528;SDS011;54366;51.980;5.856;2024-03-02T02:10:11;0.60;;;0.10;;
67528;SDS011;54366;51.980;5.856;2024-03-02T02:12:38;0.10;;;0.00;;
67528;SDS011;54366;51.980;5.856;2024-03-02T02:17:53;0.10;;;0.10;;
67528;SDS011;54366;51.980;5.856;2024-03-02T02:20:19;0.13;;;0.10;;
67528;SDS011;54366;51.980;5.856;2024-03-02T02:22:55;0.10;;;0.00;;
67528;SDS011;54366;51.980;5.856;2024-03-02T02:25:22;0.10;;;0.10;;
67528;SDS011;54366;51.980;5.856;2024-03-02T02:27:49;0.25;;;0.10;;
67528;SDS011;54366;51.980;5.856;2024-03-02T02:30:19;0.20;;;0.10;;
67528;SDS011;54366;51.980;5.856;2024-03-02T02:32:47;0.10;;;0.00;;
67528;SDS011;54366;51.980;5.856;2024-03-02T02:35:13;0.10;;;0.10;;
67528;SDS011;54366;51.980;5.856;2024-03-02T02:37:39;0.20;;;0.10;;
67528;SDS011;54366;51.980;5.856;2024-03-02T02:40:07;0.10;;;0.00;;
67528;SDS011;54366;51.980;5.856;2024-03-02T02:42:34;0.10;;;0.00;;
67528;SDS011;54366;51.980;5.856;2024-03-02T02:45:00;0.10;;;0.00;;
67528;SDS011;54366;51.980;5.856;2024-03-02T02:47:27;0.17;;;0.10;;
67528;SDS011;54366;51.980;5.856;2024-03-02T02:49:55;0.30;;;0.00;;
67528;SDS011;54366;51.980;5.856;2024-03-02T02:52:21;0.52;;;0.00;;
67528;SDS011;54366;51.980;5.856;2024-03-02T02:54:48;0.30;;;0.10;;
67528;SDS011;54366;51.980;5.856;2024-03-02T02:57:14;0.57;;;0.03;;
67528;SDS011;54366;51.980;5.856;2024-03-02T02:59:40;0.20;;;0.10;;
67528;SDS011;54366;51.980;5.856;2024-03-02T03:02:06;0.20;;;0.10;;
67528;SDS011;54366;51.980;5.856;2024-03-02T03:04:33;0.10;;;0.00;;
67528;SDS011;54366;51.980;5.856;2024-03-02T03:06:59;0.65;;;0.10;;
67528;SDS011;54366;51.980;5.856;2024-03-02T03:09:25;0.03;;;0.00;;
67528;SDS011;54366;51.980;5.856;2024-03-02T03:11:52;0.05;;;0.00;;
67528;SDS011;54366;51.980;5.856;2024-03-02T03:14:18;0.20;;;0.10;;
67528;SDS011;54366;51.980;5.856;2024-03-02T03:16:45;0.10;;;0.10;;
67528;SDS011;54366;51.980;5.856;2024-03-02T03:19:14;0.40;;;0.10;;
67528;SDS011;54366;51.980;5.856;2024-03-02T03:21:40;0.28;;;0.10;;
67528;SDS011;54366;51.980;5.856;2024-03-02T03:24:06;0.52;;;0.10;;
67528;SDS011;54366;51.980;5.856;2024-03-02T03:26:35;0.20;;;0.10;;
67528;SDS011;54366;51.980;5.856;2024-03-02T03:29:02;0.35;;;0.10;;
67528;SDS011;54366;51.980;5.856;2024-03-02T03:31:29;0.10;;;0.00;;
67528;SDS011;54366;51.980;5.856;2024-03-02T03:33:55;0.50;;;0.10;;
67528;SDS011;54366;51.980;5.856;2024-03-02T03:36:22;0.10;;;0.05;;
67528;SDS011;54366;51.980;5.856;2024-03-02T03:38:48;0.20;;;0.10;;
67528;SDS011;54366;51.980;5.856;2024-03-02T03:41:14;0.15;;;0.00;;
67528;SDS011;54366;51.980;5.856;2024-03-02T03:43:41;0.20;;;0.10;;
67528;SDS011;54366;51.980;5.856;2024-03-02T03:46:07;0.52;;;0.05;;
67528;SDS011;54366;51.980;5.856;2024-03-02T03:48:33;0.25;;;0.10;;
67528;SDS011;54366;51.980;5.856;2024-03-02T03:50:59;0.00;;;0.00;;
67528;SDS011;54366;51.980;5.856;2024-03-02T03:53:26;0.10;;;0.10;;
67528;SDS011;54366;51.980;5.856;2024-03-02T03:55:52;0.00;;;0.00;;
67528;SDS011;54366;51.980;5.856;2024-03-02T03:58:18;0.17;;;0.10;;
67528;SDS011;54366;51.980;5.856;2024-03-02T04:00:46;0.40;;;0.10;;
67528;SDS011;54366;51.980;5.856;2024-03-02T04:03:12;0.45;;;0.00;;
67528;SDS011;54366;51.980;5.856;2024-03-02T04:05:38;0.00;;;0.00;;
67528;SDS011;54366;51.980;5.856;2024-03-02T04:08:05;0.00;;;0.00;;
67528;SDS011;54366;51.980;5.856;2024-03-02T04:10:31;0.40;;;0.10;;
67528;SDS011;54366;51.980;5.856;2024-03-02T04:12:57;0.13;;;0.10;;
67528;SDS011;54366;51.980;5.856;2024-03-02T04:15:24;0.32;;;0.10;;
67528;SDS011;54366;51.980;5.856;2024-03-02T04:17:50;0.10;;;0.10;;
67528;SDS011;54366;51.980;5.856;2024-03-02T04:20:16;0.10;;;0.00;;
67528;SDS011;54366;51.980;5.856;2024-03-02T04:22:43;0.40;;;0.15;;
67528;SDS011;54366;51.980;5.856;2024-03-02T04:25:09;0.13;;;0.03;;
67528;SDS011;54366;51.980;5.856;2024-03-02T04:27:35;0.30;;;0.10;;
67528;SDS011;54366;51.980;5.856;2024-03-02T04:30:02;0.32;;;0.10;;
67528;SDS011;54366;51.980;5.856;2024-03-02T04:32:30;0.45;;;0.10;;
67528;SDS011;54366;51.980;5.856;2024-03-02T04:34:57;0.85;;;0.10;;
67528;SDS011;54366;51.980;5.856;2024-03-02T04:37:23;0.20;;;0.10;;
67528;SDS011;54366;51.980;5.856;2024-03-02T04:39:49;0.70;;;0.20;;
67528;SDS011;54366;51.980;5.856;2024-03-02T04:42:16;0.10;;;0.00;;
67528;SDS011;54366;51.980;5.856;2024-03-02T04:44:42;0.15;;;0.00;;
67528;SDS011;54366;51.980;5.856;2024-03-02T04:47:08;0.05;;;0.00;;
67528;SDS011;54366;51.980;5.856;2024-03-02T04:49:35;0.08;;;0.08;;
67528;SDS011;54366;51.980;5.856;2024-03-02T04:52:01;0.00;;;0.00;;
67528;SDS011;54366;51.980;5.856;2024-03-02T04:54:28;0.25;;;0.05;;
67528;SDS011;54366;51.980;5.856;2024-03-02T04:56:54;0.15;;;0.00;;
67528;SDS011;54366;51.980;5.856;2024-03-02T04:59:20;0.28;;;0.10;;
67528;SDS011;54366;51.980;5.856;2024-03-02T05:01:47;0.40;;;0.00;;
67528;SDS011;54366;51.980;5.856;2024-03-02T05:04:13;0.10;;;0.00;;
67528;SDS011;54366;51.980;5.856;2024-03-02T05:06:39;0.13;;;0.10;;
67528;SDS011;54366;51.980;5.856;2024-03-02T05:09:09;0.43;;;0.10;;
67528;SDS011;54366;51.980;5.856;2024-03-02T05:11:36;0.43;;;0.10;;
67528;SDS011;54366;51.980;5.856;2024-03-02T05:14:20;0.10;;;0.10;;
67528;SDS011;54366;51.980;5.856;2024-03-02T05:16:46;0.47;;;0.10;;
67528;SDS011;54366;51.980;5.856;2024-03-02T05:19:12;0.30;;;0.03;;
67528;SDS011;54366;51.980;5.856;2024-03-02T05:21:38;0.20;;;0.20;;
67528;SDS011;54366;51.980;5.856;2024-03-02T05:24:05;0.63;;;0.10;;
67528;SDS011;54366;51.980;5.856;2024-03-02T05:26:31;0.10;;;0.10;;
67528;SDS011;54366;51.980;5.856;2024-03-02T05:28:58;0.17;;;0.10;;
67528;SDS011;54366;51.980;5.856;2024-03-02T05:31:24;0.10;;;0.10;;
67528;SDS011;54366;51.980;5.856;2024-03-02T05:33:50;0.20;;;0.00;;
67528;SDS011;54366;51.980;5.856;2024-03-02T05:36:18;0.15;;;0.03;;
67528;SDS011;54366;51.980;5.856;2024-03-02T05:38:44;0.20;;;0.08;;
67528;SDS011;54366;51.980;5.856;2024-03-02T05:41:10;0.10;;;0.10;;
67528;SDS011;54366;51.980;5.856;2024-03-02T05:43:37;0.10;;;0.00;;
67528;SDS011;54366;51.980;5.856;2024-03-02T05:46:03;0.20;;;0.20;;
67528;SDS011;54366;51.980;5.856;2024-03-02T05:48:30;1.45;;;0.10;;
67528;SDS011;54366;51.980;5.856;2024-03-02T05:50:56;0.20;;;0.10;;
67528;SDS011;54366;51.980;5.856;2024-03-02T05:53:22;0.45;;;0.03;;
67528;SDS011;54366;51.980;5.856;2024-03-02T05:55:49;0.28;;;0.10;;
67528;SDS011;54366;51.980;5.856;2024-03-02T05:58:20;0.30;;;0.10;;
67528;SDS011;54366;51.980;5.856;2024-03-02T06:01:03;0.10;;;0.10;;
67528;SDS011;54366;51.980;5.856;2024-03-02T06:03:31;0.35;;;0.10;;
67528;SDS011;54366;51.980;5.856;2024-03-02T06:05:57;0.30;;;0.10;;
67528;SDS011;54366;51.980;5.856;2024-03-02T06:08:24;1.60;;;0.10;;
67528;SDS011;54366;51.980;5.856;2024-03-02T06:10:50;0.63;;;0.00;;
67528;SDS011;54366;51.980;5.856;2024-03-02T06:13:16;0.10;;;0.00;;
67528;SDS011;54366;51.980;5.856;2024-03-02T06:15:42;0.10;;;0.00;;
67528;SDS011;54366;51.980;5.856;2024-03-02T06:18:09;0.10;;;0.10;;
67528;SDS011;54366;51.980;5.856;2024-03-02T06:20:35;0.30;;;0.08;;
67528;SDS011;54366;51.980;5.856;2024-03-02T06:23:03;0.40;;;0.10;;
67528;SDS011;54366;51.980;5.856;2024-03-02T06:25:30;0.30;;;0.10;;
67528;SDS011;54366;51.980;5.856;2024-03-02T06:27:56;0.30;;;0.10;;
67528;SDS011;54366;51.980;5.856;2024-03-02T06:30:22;0.22;;;0.00;;
67528;SDS011;54366;51.980;5.856;2024-03-02T06:32:49;0.40;;;0.10;;
67528;SDS011;54366;51.980;5.856;2024-03-02T06:35:15;0.10;;;0.10;;
67528;SDS011;54366;51.980;5.856;2024-03-02T06:37:41;0.35;;;0.10;;
67528;SDS011;54366;51.980;5.856;2024-03-02T06:40:08;0.40;;;0.10;;
67528;SDS011;54366;51.980;5.856;2024-03-02T06:42:34;1.20;;;0.10;;
67528;SDS011;54366;51.980;5.856;2024-03-02T06:45:01;0.73;;;0.10;;
67528;SDS011;54366;51.980;5.856;2024-03-02T06:47:28;0.68;;;0.20;;
67528;SDS011;54366;51.980;5.856;2024-03-02T06:49:55;0.20;;;0.10;;
67528;SDS011;54366;51.980;5.856;2024-03-02T06:52:23;0.38;;;0.10;;
67528;SDS011;54366;51.980;5.856;2024-03-02T06:54:49;0.20;;;0.08;;
67528;SDS011;54366;51.980;5.856;2024-03-02T06:57:15;0.60;;;0.20;;
67528;SDS011;54366;51.980;5.856;2024-03-02T06:59:42;0.30;;;0.10;;
67528;SDS011;54366;51.980;5.856;2024-03-02T07:02:09;0.35;;;0.10;;
67528;SDS011;54366;51.980;5.856;2024-03-02T07:04:35;0.40;;;0.10;;
67528;SDS011;54366;51.980;5.856;2024-03-02T07:07:01;0.30;;;0.10;;
67528;SDS011;54366;51.980;5.856;2024-03-02T07:09:28;0.40;;;0.10;;
67528;SDS011;54366;51.980;5.856;2024-03-02T07:11:54;0.45;;;0.10;;
67528;SDS011;54366;51.980;5.856;2024-03-02T07:14:21;3.35;;;0.20;;
67528;SDS011;54366;51.980;5.856;2024-03-02T07:17:03;0.55;;;0.13;;
67528;SDS011;54366;51.980;5.856;2024-03-02T07:19:29;0.17;;;0.10;;
67528;SDS011;54366;51.980;5.856;2024-03-02T07:21:55;0.50;;;0.10;;
67528;SDS011;54366;51.980;5.856;2024-03-02T07:24:22;0.45;;;0.03;;
67528;SDS011;54366;51.980;5.856;2024-03-02T07:26:48;0.20;;;0.10;;
67528;SDS011;54366;51.980;5.856;2024-03-02T07:29:14;0.55;;;0.10;;
67528;SDS011;54366;51.980;5.856;2024-03-02T07:31:40;0.20;;;0.05;;
67528;SDS011;54366;51.980;5.856;2024-03-02T07:34:07;0.30;;;0.10;;
67528;SDS011;54366;51.980;5.856;2024-03-02T07:36:33;0.40;;;0.10;;
67528;SDS011;54366;51.980;5.856;2024-03-02T07:38:59;0.75;;;0.20;;
67528;SDS011;54366;51.980;5.856;2024-03-02T07:41:26;0.73;;;0.20;;
67528;SDS011;54366;51.980;5.856;2024-03-02T07:43:52;1.48;;;0.10;;
67528;SDS011;54366;51.980;5.856;2024-03-02T07:46:18;0.47;;;0.10;;
67528;SDS011;54366;51.980;5.856;2024-03-02T07:48:44;0.82;;;0.20;;
67528;SDS011;54366;51.980;5.856;2024-03-02T07:51:11;0.35;;;0.10;;
67528;SDS011;54366;51.980;5.856;2024-03-02T07:53:37;0.50;;;0.10;;
67528;SDS011;54366;51.980;5.856;2024-03-02T07:56:04;0.50;;;0.15;;
67528;SDS011;54366;51.980;5.856;2024-03-02T07:58:31;1.10;;;0.30;;
67528;SDS011;54366;51.980;5.856;2024-03-02T08:00:59;0.88;;;0.20;;
67528;SDS011;54366;51.980;5.856;2024-03-02T08:03:26;0.82;;;0.20;;
67528;SDS011;54366;51.980;5.856;2024-03-02T08:05:53;1.17;;;0.28;;
67528;SDS011;54366;51.980;5.856;2024-03-02T08:08:19;0.90;;;0.20;;
67528;SDS011;54366;51.980;5.856;2024-03-02T08:10:45;0.77;;;0.20;;
67528;SDS011;54366;51.980;5.856;2024-03-02T08:13:12;1.58;;;0.25;;
67528;SDS011;54366;51.980;5.856;2024-03-02T08:15:39;1.25;;;0.40;;
67528;SDS011;54366;51.980;5.856;2024-03-02T08:18:05;1.15;;;0.30;;
67528;SDS011;54366;51.980;5.856;2024-03-02T08:20:32;1.05;;;0.25;;
67528;SDS011;54366;51.980;5.856;2024-03-02T08:22:58;1.05;;;0.20;;
67528;SDS011;54366;51.980;5.856;2024-03-02T08:25:24;1.10;;;0.20;;
67528;SDS011;54366;51.980;5.856;2024-03-02T08:27:51;0.30;;;0.30;;
67528;SDS011;54366;51.980;5.856;2024-03-02T08:30:17;1.83;;;0.30;;
67528;SDS011;54366;51.980;5.856;2024-03-02T08:32:44;0.65;;;0.20;;
67528;SDS011;54366;51.980;5.856;2024-03-02T08:35:10;0.30;;;0.20;;
67528;SDS011;54366;51.980;5.856;2024-03-02T08:37:38;0.50;;;0.20;;
67528;SDS011;54366;51.980;5.856;2024-03-02T08:40:07;0.93;;;0.20;;
67528;SDS011;54366;51.980;5.856;2024-03-02T08:42:34;1.60;;;0.30;;
67528;SDS011;54366;51.980;5.856;2024-03-02T08:45:00;2.95;;;0.22;;
67528;SDS011;54366;51.980;5.856;2024-03-02T08:47:27;1.27;;;0.22;;
67528;SDS011;54366;51.980;5.856;2024-03-02T08:49:53;1.90;;;0.30;;
67528;SDS011;54366;51.980;5.856;2024-03-02T08:52:19;1.88;;;0.30;;
67528;SDS011;54366;51.980;5.856;2024-03-02T08:54:46;1.48;;;0.20;;
67528;SDS011;54366;51.980;5.856;2024-03-02T08:57:12;0.55;;;0.30;;
67528;SDS011;54366;51.980;5.856;2024-03-02T08:59:38;0.50;;;0.20;;
67528;SDS011;54366;51.980;5.856;2024-03-02T09:02:05;1.35;;;0.30;;
67528;SDS011;54366;51.980;5.856;2024-03-02T09:04:31;2.10;;;0.50;;
67528;SDS011;54366;51.980;5.856;2024-03-02T09:06:57;1.02;;;0.20;;
67528;SDS011;54366;51.980;5.856;2024-03-02T09:09:24;1.15;;;0.50;;
67528;SDS011;54366;51.980;5.856;2024-03-02T09:11:50;2.55;;;0.43;;
67528;SDS011;54366;51.980;5.856;2024-03-02T09:14:16;1.83;;;0.35;;
67528;SDS011;54366;51.980;5.856;2024-03-02T09:16:42;2.67;;;0.40;;
67528;SDS011;54366;51.980;5.856;2024-03-02T09:19:09;2.22;;;0.57;;
67528;SDS011;54366;51.980;5.856;2024-03-02T09:21:36;1.15;;;0.50;;
67528;SDS011;54366;51.980;5.856;2024-03-02T09:24:02;2.22;;;0.40;;
67528;SDS011;54366;51.980;5.856;2024-03-02T09:26:29;0.80;;;0.20;;
67528;SDS011;54366;51.980;5.856;2024-03-02T09:28:55;2.85;;;0.45;;
67528;SDS011;54366;51.980;5.856;2024-03-02T09:31:22;1.42;;;0.40;;
67528;SDS011;54366;51.980;5.856;2024-03-02T09:33:48;1.92;;;0.30;;
67528;SDS011;54366;51.980;5.856;2024-03-02T09:36:18;1.70;;;0.40;;
67528;SDS011;54366;51.980;5.856;2024-03-02T09:38:45;1.02;;;0.30;;
67528;SDS011;54366;51.980;5.856;2024-03-02T09:41:12;1.73;;;0.40;;
67528;SDS011;54366;51.980;5.856;2024-03-02T09:43:39;1.15;;;0.30;;
67528;SDS011;54366;51.980;5.856;2024-03-02T09:46:06;2.20;;;0.40;;
67528;SDS011;54366;51.980;5.856;2024-03-02T09:48:35;1.83;;;0.40;;
67528;SDS011;54366;51.980;5.856;2024-03-02T09:51:01;0.90;;;0.30;;
67528;SDS011;54366;51.980;5.856;2024-03-02T09:53:30;1.42;;;0.32;;
67528;SDS011;54366;51.980;5.856;2024-03-02T09:56:01;2.33;;;0.40;;
67528;SDS011;54366;51.980;5.856;2024-03-02T09:58:28;2.63;;;0.40;;
67528;SDS011;54366;51.980;5.856;2024-03-02T10:00:55;0.80;;;0.35;;
67528;SDS011;54366;51.980;5.856;2024-03-02T10:03:22;1.02;;;0.40;;
67528;SDS011;54366;51.980;5.856;2024-03-02T10:05:50;1.38;;;0.28;;
67528;SDS011;54366;51.980;5.856;2024-03-02T10:08:17;1.58;;;0.40;;
67528;SDS011;54366;51.980;5.856;2024-03-02T10:10:43;0.60;;;0.30;;
67528;SDS011;54366;51.980;5.856;2024-03-02T10:13:10;1.85;;;0.50;;
67528;SDS011;54366;51.980;5.856;2024-03-02T10:15:38;2.80;;;0.57;;
67528;SDS011;54366;51.980;5.856;2024-03-02T10:18:08;2.15;;;0.38;;
67528;SDS011;54366;51.980;5.856;2024-03-02T10:20:39;1.63;;;0.40;;
67528;SDS011;54366;51.980;5.856;2024-03-02T10:23:09;1.58;;;0.50;;
67528;SDS011;54366;51.980;5.856;2024-03-02T10:25:40;4.38;;;0.50;;
67528;SDS011;54366;51.980;5.856;2024-03-02T10:28:07;1.38;;;0.20;;
67528;SDS011;54366;51.980;5.856;2024-03-02T10:30:34;1.50;;;0.30;;
67528;SDS011;54366;51.980;5.856;2024-03-02T10:33:02;1.67;;;0.40;;
67528;SDS011;54366;51.980;5.856;2024-03-02T10:35:29;1.60;;;0.30;;
67528;SDS011;54366;51.980;5.856;2024-03-02T10:38:00;1.85;;;0.40;;
67528;SDS011;54366;51.980;5.856;2024-03-02T10:40:29;1.38;;;0.30;;
67528;SDS011;54366;51.980;5.856;2024-03-02T10:42:55;1.20;;;0.30;;
67528;SDS011;54366;51.980;5.856;2024-03-02T10:45:23;1.38;;;0.35;;
67528;SDS011;54366;51.980;5.856;2024-03-02T10:47:50;0.85;;;0.20;;
67528;SDS011;54366;51.980;5.856;2024-03-02T10:50:16;1.48;;;0.43;;
67528;SDS011;54366;51.980;5.856;2024-03-02T10:52:43;1.90;;;0.40;;
67528;SDS011;54366;51.980;5.856;2024-03-02T10:55:09;1.95;;;0.30;;
67528;SDS011;54366;51.980;5.856;2024-03-02T10:57:40;2.22;;;0.40;;
67528;SDS011;54366;51.980;5.856;2024-03-02T11:00:08;1.70;;;0.30;;
67528;SDS011;54366;51.980;5.856;2024-03-02T11:02:42;1.38;;;0.30;;
67528;SDS011;54366;51.980;5.856;2024-03-02T11:05:38;1.77;;;0.50;;
67528;SDS011;54366;51.980;5.856;2024-03-02T11:08:07;1.70;;;0.43;;
67528;SDS011;54366;51.980;5.856;2024-03-02T11:10:35;0.60;;;0.20;;
67528;SDS011;54366;51.980;5.856;2024-03-02T11:13:08;1.80;;;0.38;;
67528;SDS011;54366;51.980;5.856;2024-03-02T11:15:35;1.40;;;0.60;;
67528;SDS011;54366;51.980;5.856;2024-03-02T11:18:04;2.17;;;0.52;;
67528;SDS011;54366;51.980;5.856;2024-03-02T11:20:38;1.55;;;0.30;;
67528;SDS011;54366;51.980;5.856;2024-03-02T11:23:05;1.75;;;0.30;;
67528;SDS011;54366;51.980;5.856;2024-03-02T11:25:32;0.88;;;0.30;;
67528;SDS011;54366;51.980;5.856;2024-03-02T11:27:59;1.38;;;0.30;;
67528;SDS011;54366;51.980;5.856;2024-03-02T11:33:24;0.60;;;0.20;;
67528;SDS011;54366;51.980;5.856;2024-03-02T11:35:53;0.52;;;0.20;;
67528;SDS011;54366;51.980;5.856;2024-03-02T11:38:21;1.23;;;0.20;;
67528;SDS011;54366;51.980;5.856;2024-03-02T11:40:47;1.40;;;0.30;;
67528;SDS011;54366;51.980;5.856;2024-03-02T11:43:14;1.25;;;0.35;;
67528;SDS011;54366;51.980;5.856;2024-03-02T11:45:41;1.90;;;0.45;;
67528;SDS011;54366;51.980;5.856;2024-03-02T11:48:13;1.17;;;0.40;;
67528;SDS011;54366;51.980;5.856;2024-03-02T11:50:41;0.45;;;0.20;;
67528;SDS011;54366;51.980;5.856;2024-03-02T11:53:10;1.55;;;0.20;;
67528;SDS011;54366;51.980;5.856;2024-03-02T11:55:38;0.43;;;0.10;;
67528;SDS011;54366;51.980;5.856;2024-03-02T11:58:06;1.10;;;0.40;;
67528;SDS011;54366;51.980;5.856;2024-03-02T12:00:33;1.23;;;0.20;;
67528;SDS011;54366;51.980;5.856;2024-03-02T12:03:07;0.60;;;0.20;;
67528;SDS011;54366;51.980;5.856;2024-03-02T12:05:35;0.90;;;0.32;;
67528;SDS011;54366;51.980;5.856;2024-03-02T12:08:02;1.52;;;0.25;;
67528;SDS011;54366;51.980;5.856;2024-03-02T12:10:30;1.17;;;0.20;;
67528;SDS011;54366;51.980;5.856;2024-03-02T12:13:01;0.88;;;0.30;;
67528;SDS011;54366;51.980;5.856;2024-03-02T12:15:29;0.65;;;0.30;;
67528;SDS011;54366;51.980;5.856;2024-03-02T12:17:58;2.08;;;0.40;;
67528;SDS011;54366;51.980;5.856;2024-03-02T12:20:26;2.28;;;0.40;;
67528;SDS011;54366;51.980;5.856;2024-03-02T12:22:55;1.13;;;0.22;;
67528;SDS011;54366;51.980;5.856;2024-03-02T12:25:23;2.00;;;0.32;;
67528;SDS011;54366;51.980;5.856;2024-03-02T12:27:51;0.93;;;0.35;;
67528;SDS011;54366;51.980;5.856;2024-03-02T12:30:19;1.90;;;0.30;;
67528;SDS011;54366;51.980;5.856;2024-03-02T12:32:46;1.40;;;0.50;;
67528;SDS011;54366;51.980;5.856;2024-03-02T12:35:13;1.67;;;0.40;;
67528;SDS011;54366;51.980;5.856;2024-03-02T12:37:44;0.90;;;0.30;;
67528;SDS011;54366;51.980;5.856;2024-03-02T12:40:12;2.58;;;0.50;;
67528;SDS011;54366;51.980;5.856;2024-03-02T12:42:39;0.90;;;0.30;;
67528;SDS011;54366;51.980;5.856;2024-03-02T12:45:08;1.50;;;0.25;;
67528;SDS011;54366;51.980;5.856;2024-03-02T12:47:35;0.90;;;0.30;;
67528;SDS011;54366;51.980;5.856;2024-03-02T12:50:02;0.88;;;0.20;;
67528;SDS011;54366;51.980;5.856;2024-03-02T12:52:32;1.63;;;0.22;;
67528;SDS011;54366;51.980;5.856;2024-03-02T12:55:05;2.13;;;0.30;;
67528;SDS011;54366;51.980;5.856;2024-03-02T12:57:32;1.17;;;0.30;;
67528;SDS011;54366;51.980;5.856;2024-03-02T13:00:00;1.60;;;0.30;;
67528;SDS011;54366;51.980;5.856;2024-03-02T13:02:41;0.82;;;0.30;;
67528;SDS011;54366;51.980;5.856;2024-03-02T13:05:08;1.38;;;0.40;;
67528;SDS011;54366;51.980;5.856;2024-03-02T13:07:37;2.35;;;0.50;;
67528;SDS011;54366;51.980;5.856;2024-03-02T13:10:04;1.08;;;0.38;;
67528;SDS011;54366;51.980;5.856;2024-03-02T13:12:33;1.17;;;0.20;;
67528;SDS011;54366;51.980;5.856;2024-03-02T13:15:01;1.05;;;0.20;;
67528;SDS011;54366;51.980;5.856;2024-03-02T13:17:29;0.70;;;0.30;;
67528;SDS011;54366;51.980;5.856;2024-03-02T13:19:59;1.85;;;0.35;;
67528;SDS011;54366;51.980;5.856;2024-03-02T13:22:26;0.70;;;0.28;;
67528;SDS011;54366;51.980;5.856;2024-03-02T13:24:53;1.20;;;0.35;;
67528;SDS011;54366;51.980;5.856;2024-03-02T13:27:23;1.27;;;0.50;;
67528;SDS011;54366;51.980;5.856;2024-03-02T13:29:49;1.23;;;0.40;;
67528;SDS011;54366;51.980;5.856;2024-03-02T13:32:16;1.40;;;0.40;;
67528;SDS011;54366;51.980;5.856;2024-03-02T13:34:42;2.72;;;0.50;;
67528;SDS011;54366;51.980;5.856;2024-03-02T13:37:09;0.93;;;0.40;;
67528;SDS011;54366;51.980;5.856;2024-03-02T13:39:35;0.63;;;0.30;;
67528;SDS011;54366;51.980;5.856;2024-03-02T13:42:08;0.65;;;0.32;;
67528;SDS011;54366;51.980;5.856;2024-03-02T13:44:36;2.08;;;0.32;;
67528;SDS011;54366;51.980;5.856;2024-03-02T13:47:03;1.98;;;0.47;;
67528;SDS011;54366;51.980;5.856;2024-03-02T13:49:30;0.60;;;0.30;;
67528;SDS011;54366;51.980;5.856;2024-03-02T13:52:04;1.55;;;0.68;;
67528;SDS011;54366;51.980;5.856;2024-03-02T13:54:37;1.98;;;0.47;;
67528;SDS011;54366;51.980;5.856;2024-03-02T13:57:04;0.95;;;0.30;;
67528;SDS011;54366;51.980;5.856;2024-03-02T13:59:31;1.13;;;0.30;;
67528;SDS011;54366;51.980;5.856;2024-03-02T14:01:58;0.75;;;0.35;;
67528;SDS011;54366;51.980;5.856;2024-03-02T14:04:25;1.42;;;0.50;;
67528;SDS011;54366;51.980;5.856;2024-03-02T14:06:51;0.98;;;0.47;;
67528;SDS011;54366;51.980;5.856;2024-03-02T14:09:18;1.25;;;0.40;;
67528;SDS011;54366;51.980;5.856;2024-03-02T14:11:46;1.80;;;0.40;;
67528;SDS011;54366;51.980;5.856;2024-03-02T14:14:12;1.23;;;0.40;;
67528;SDS011;54366;51.980;5.856;2024-03-02T14:16:39;0.60;;;0.30;;
67528;SDS011;54366;51.980;5.856;2024-03-02T14:19:05;1.27;;;0.40;;
67528;SDS011;54366;51.980;5.856;2024-03-02T14:21:32;0.70;;;0.28;;
67528;SDS011;54366;51.980;5.856;2024-03-02T14:23:58;2.22;;;0.30;;
67528;SDS011;54366;51.980;5.856;2024-03-02T14:26:24;1.35;;;0.30;;
67528;SDS011;54366;51.980;5.856;2024-03-02T14:28:51;0.85;;;0.20;;
67528;SDS011;54366;51.980;5.856;2024-03-02T14:31:17;1.52;;;0.40;;
67528;SDS011;54366;51.980;5.856;2024-03-02T14:33:43;2.10;;;0.50;;
67528;SDS011;54366;51.980;5.856;2024-03-02T14:36:10;1.65;;;0.40;;
67528;SDS011;54366;51.980;5.856;2024-03-02T14:38:36;1.25;;;0.30;;
67528;SDS011;54366;51.980;5.856;2024-03-02T14:41:03;1.50;;;0.40;;
67528;SDS011;54366;51.980;5.856;2024-03-02T14:43:30;1.42;;;0.45;;
67528;SDS011;54366;51.980;5.856;2024-03-02T14:45:57;2.05;;;0.52;;
67528;SDS011;54366;51.980;5.856;2024-03-02T14:48:24;1.95;;;0.50;;
67528;SDS011;54366;51.980;5.856;2024-03-02T14:50:51;0.80;;;0.38;;
67528;SDS011;54366;51.980;5.856;2024-03-02T14:53:18;0.85;;;0.32;;
67528;SDS011;54366;51.980;5.856;2024-03-02T14:55:44;2.25;;;0.43;;